EWG8M EDDS-EDDH
Flight info
| Callsign | EWG8M |
|---|---|
| Flight time | 0h 55m |
| Altitude | 35000 |
| Route | OKIBA4B OKIBA N851 RIMKI Z99 LOHRE DCT MASEK DCT ELNAT/N0430F360 P605 NOLGO NOLGO6A |
| Aircraft | A320/M-SDE3FGHIRWY/LB1 |
Departure
| Time | 2026-05-06 13:11 |
|---|---|
| Airport | Stuttgart Airport (EDDS) |
Arrival
| Time | 2026-05-06 14:06 |
|---|---|
| Airport | Hamburg Helmut Schmidt Airport (EDDH) |
| Time | Latitude | Longitude | Altitude | Speed | Heading |
|---|---|---|---|---|---|
| 2026-05-06 12:37 | 48.68920 | 9.19583 | 1286 ft | 0 kts | 344° |
| 2026-05-06 13:02 | 48.68897 | 9.19592 | 1287 ft | 4 kts | 351° |
| 2026-05-06 13:02 | 48.68870 | 9.19594 | 1290 ft | 4 kts | 8° |
| 2026-05-06 13:03 | 48.68847 | 9.19582 | 1290 ft | 4 kts | 55° |
| 2026-05-06 13:03 | 48.68842 | 9.19566 | 1290 ft | 1 kts | 74° |
| 2026-05-06 13:03 | 48.68842 | 9.19565 | 1290 ft | 0 kts | 74° |
| 2026-05-06 13:05 | 48.68845 | 9.19584 | 1290 ft | 5 kts | 74° |
| 2026-05-06 13:05 | 48.68861 | 9.19668 | 1290 ft | 12 kts | 74° |
| 2026-05-06 13:06 | 48.68872 | 9.19818 | 1287 ft | 17 kts | 120° |
| 2026-05-06 13:06 | 48.68831 | 9.19990 | 1285 ft | 20 kts | 73° |
| 2026-05-06 13:06 | 48.68871 | 9.20205 | 1282 ft | 22 kts | 74° |
| 2026-05-06 13:06 | 48.68917 | 9.20446 | 1276 ft | 25 kts | 74° |
| 2026-05-06 13:07 | 48.68967 | 9.20711 | 1271 ft | 27 kts | 74° |
| 2026-05-06 13:07 | 48.69021 | 9.20998 | 1269 ft | 29 kts | 74° |
| 2026-05-06 13:07 | 48.69078 | 9.21302 | 1261 ft | 30 kts | 74° |
| 2026-05-06 13:07 | 48.69135 | 9.21605 | 1266 ft | 30 kts | 73° |
| 2026-05-06 13:08 | 48.69196 | 9.21913 | 1255 ft | 32 kts | 74° |
| 2026-05-06 13:08 | 48.69249 | 9.22193 | 1245 ft | 29 kts | 74° |
| 2026-05-06 13:08 | 48.69308 | 9.22505 | 1229 ft | 33 kts | 74° |
| 2026-05-06 13:08 | 48.69368 | 9.22824 | 1222 ft | 25 kts | 74° |
| 2026-05-06 13:09 | 48.69406 | 9.23090 | 1218 ft | 20 kts | 104° |
| 2026-05-06 13:09 | 48.69295 | 9.23146 | 1220 ft | 17 kts | 218° |
| 2026-05-06 13:09 | 48.69217 | 9.23026 | 1224 ft | 15 kts | 225° |
| 2026-05-06 13:09 | 48.69140 | 9.22908 | 1225 ft | 17 kts | 225° |
| 2026-05-06 13:10 | 48.69096 | 9.22769 | 1227 ft | 10 kts | 255° |
| 2026-05-06 13:10 | 48.69065 | 9.22601 | 1231 ft | 43 kts | 254° |
| 2026-05-06 13:10 | 48.68902 | 9.21748 | 1262 ft | 121 kts | 254° |
| 2026-05-06 13:10 | 48.68621 | 9.20252 | 1447 ft | 164 kts | 255° |
| 2026-05-06 13:11 | 48.68322 | 9.18499 | 2131 ft | 177 kts | 256° |
| 2026-05-06 13:11 | 48.67983 | 9.16706 | 2989 ft | 181 kts | 254° |
| 2026-05-06 13:11 | 48.67598 | 9.14781 | 3358 ft | 202 kts | 253° |
| 2026-05-06 13:11 | 48.67163 | 9.12636 | 3732 ft | 225 kts | 255° |
| 2026-05-06 13:12 | 48.67099 | 9.10248 | 4507 ft | 236 kts | 287° |
| 2026-05-06 13:12 | 48.67923 | 9.08068 | 5414 ft | 243 kts | 305° |
| 2026-05-06 13:12 | 48.69241 | 9.06374 | 6281 ft | 254 kts | 334° |
| 2026-05-06 13:12 | 48.70970 | 9.05538 | 6782 ft | 274 kts | 342° |
| 2026-05-06 13:13 | 48.72829 | 9.04714 | 7556 ft | 281 kts | 343° |
| 2026-05-06 13:13 | 48.74784 | 9.04309 | 8400 ft | 288 kts | 1° |
| 2026-05-06 13:13 | 48.76750 | 9.04938 | 9252 ft | 294 kts | 22° |
| 2026-05-06 13:13 | 48.78477 | 9.06619 | 10095 ft | 299 kts | 44° |
| 2026-05-06 13:14 | 48.79839 | 9.09134 | 10440 ft | 321 kts | 55° |
| 2026-05-06 13:14 | 48.81161 | 9.11974 | 10956 ft | 336 kts | 56° |
| 2026-05-06 13:14 | 48.82501 | 9.14907 | 11748 ft | 341 kts | 56° |
| 2026-05-06 13:14 | 48.83862 | 9.17893 | 12503 ft | 345 kts | 56° |
| 2026-05-06 13:15 | 48.85240 | 9.20907 | 13271 ft | 350 kts | 56° |
| 2026-05-06 13:15 | 48.86645 | 9.23965 | 13906 ft | 357 kts | 57° |
| 2026-05-06 13:15 | 48.88091 | 9.27072 | 14491 ft | 363 kts | 54° |
| 2026-05-06 13:15 | 48.89856 | 9.29853 | 15105 ft | 370 kts | 39° |
| 2026-05-06 13:16 | 48.92054 | 9.31958 | 15767 ft | 375 kts | 25° |
| 2026-05-06 13:16 | 48.94531 | 9.33219 | 16394 ft | 378 kts | 10° |
| 2026-05-06 13:16 | 48.97156 | 9.33548 | 17040 ft | 380 kts | 356° |
| 2026-05-06 13:16 | 48.99812 | 9.33334 | 17698 ft | 384 kts | 355° |
| 2026-05-06 13:17 | 49.02492 | 9.33115 | 18320 ft | 387 kts | 355° |
| 2026-05-06 13:17 | 49.05189 | 9.32903 | 18876 ft | 391 kts | 355° |
| 2026-05-06 13:17 | 49.07918 | 9.32692 | 19435 ft | 394 kts | 355° |
| 2026-05-06 13:17 | 49.10666 | 9.32479 | 20002 ft | 397 kts | 355° |
| 2026-05-06 13:18 | 49.13444 | 9.32262 | 20557 ft | 400 kts | 355° |
| 2026-05-06 13:18 | 49.16200 | 9.32042 | 21119 ft | 403 kts | 356° |
| 2026-05-06 13:18 | 49.19006 | 9.31816 | 21726 ft | 405 kts | 356° |
| 2026-05-06 13:18 | 49.21864 | 9.31584 | 22286 ft | 407 kts | 356° |
| 2026-05-06 13:19 | 49.24693 | 9.31358 | 22801 ft | 410 kts | 356° |
| 2026-05-06 13:19 | 49.27565 | 9.31134 | 23323 ft | 413 kts | 356° |
| 2026-05-06 13:19 | 49.30448 | 9.30910 | 23751 ft | 416 kts | 356° |
| 2026-05-06 13:19 | 49.33350 | 9.30687 | 24175 ft | 419 kts | 356° |
| 2026-05-06 13:20 | 49.36271 | 9.30660 | 24593 ft | 422 kts | 4° |
| 2026-05-06 13:20 | 49.39205 | 9.31084 | 25008 ft | 425 kts | 5° |
| 2026-05-06 13:20 | 49.42157 | 9.31527 | 25422 ft | 427 kts | 5° |
| 2026-05-06 13:20 | 49.45124 | 9.31969 | 25816 ft | 430 kts | 5° |
| 2026-05-06 13:21 | 49.48077 | 9.32408 | 26225 ft | 433 kts | 5° |
| 2026-05-06 13:21 | 49.51085 | 9.32851 | 26614 ft | 436 kts | 5° |
| 2026-05-06 13:21 | 49.54117 | 9.33296 | 26998 ft | 438 kts | 5° |
| 2026-05-06 13:21 | 49.57167 | 9.33745 | 27385 ft | 441 kts | 5° |
| 2026-05-06 13:22 | 49.60231 | 9.34198 | 27761 ft | 444 kts | 5° |
| 2026-05-06 13:22 | 49.63314 | 9.34655 | 28098 ft | 447 kts | 5° |
| 2026-05-06 13:22 | 49.66422 | 9.35116 | 28452 ft | 450 kts | 5° |
| 2026-05-06 13:22 | 49.69549 | 9.35579 | 28794 ft | 453 kts | 5° |
| 2026-05-06 13:23 | 49.72702 | 9.36052 | 29164 ft | 456 kts | 5° |
| 2026-05-06 13:23 | 49.75851 | 9.36755 | 29505 ft | 459 kts | 12° |
| 2026-05-06 13:23 | 49.78954 | 9.37933 | 29836 ft | 462 kts | 14° |
| 2026-05-06 13:23 | 49.82084 | 9.39143 | 30118 ft | 465 kts | 13° |
| 2026-05-06 13:24 | 49.85237 | 9.40364 | 30354 ft | 469 kts | 13° |
| 2026-05-06 13:24 | 49.88414 | 9.41590 | 30603 ft | 471 kts | 13° |
| 2026-05-06 13:24 | 49.91598 | 9.42815 | 30859 ft | 474 kts | 13° |
| 2026-05-06 13:24 | 49.94807 | 9.44045 | 31117 ft | 476 kts | 13° |
| 2026-05-06 13:25 | 49.98018 | 9.45278 | 31405 ft | 477 kts | 13° |
| 2026-05-06 13:25 | 50.01246 | 9.46520 | 31783 ft | 477 kts | 13° |
| 2026-05-06 13:25 | 50.04471 | 9.47768 | 32148 ft | 477 kts | 13° |
| 2026-05-06 13:25 | 50.07711 | 9.48802 | 32459 ft | 476 kts | 5° |
| 2026-05-06 13:26 | 50.11009 | 9.49373 | 32800 ft | 476 kts | 4° |
| 2026-05-06 13:26 | 50.14298 | 9.49919 | 33151 ft | 476 kts | 4° |
| 2026-05-06 13:26 | 50.17588 | 9.50462 | 33520 ft | 476 kts | 4° |
| 2026-05-06 13:26 | 50.20889 | 9.51005 | 33864 ft | 476 kts | 4° |
| 2026-05-06 13:27 | 50.24178 | 9.51548 | 34167 ft | 475 kts | 4° |
| 2026-05-06 13:27 | 50.27465 | 9.52094 | 34455 ft | 475 kts | 4° |
| 2026-05-06 13:27 | 50.30749 | 9.52646 | 34679 ft | 476 kts | 4° |
| 2026-05-06 13:28 | 50.37267 | 9.53759 | 34749 ft | 466 kts | 4° |
| 2026-05-06 13:28 | 50.43698 | 9.54858 | 34748 ft | 464 kts | 4° |
| 2026-05-06 13:29 | 50.50115 | 9.55944 | 34744 ft | 462 kts | 4° |
| 2026-05-06 13:29 | 50.56446 | 9.57020 | 34742 ft | 460 kts | 4° |
| 2026-05-06 13:30 | 50.62798 | 9.58209 | 34740 ft | 460 kts | 5° |
| 2026-05-06 13:30 | 50.69146 | 9.59619 | 34737 ft | 460 kts | 6° |
| 2026-05-06 13:31 | 50.75471 | 9.61064 | 34739 ft | 460 kts | 6° |
| 2026-05-06 13:31 | 50.81821 | 9.62464 | 34738 ft | 460 kts | 5° |
| 2026-05-06 13:32 | 50.88156 | 9.63840 | 34734 ft | 460 kts | 5° |
| 2026-05-06 13:32 | 50.94494 | 9.65212 | 34743 ft | 460 kts | 5° |
| 2026-05-06 13:33 | 51.00831 | 9.66594 | 34748 ft | 459 kts | 6° |
| 2026-05-06 13:33 | 51.07177 | 9.68002 | 34749 ft | 459 kts | 6° |
| 2026-05-06 13:34 | 51.13506 | 9.69403 | 34751 ft | 459 kts | 6° |
| 2026-05-06 13:34 | 51.19837 | 9.70800 | 34759 ft | 459 kts | 6° |
| 2026-05-06 13:35 | 51.26173 | 9.72210 | 34756 ft | 460 kts | 6° |
| 2026-05-06 13:35 | 51.32507 | 9.73623 | 34752 ft | 460 kts | 6° |
| 2026-05-06 13:36 | 51.38813 | 9.75039 | 34763 ft | 460 kts | 6° |
| 2026-05-06 13:36 | 51.45192 | 9.76466 | 34778 ft | 460 kts | 6° |
| 2026-05-06 13:37 | 51.51492 | 9.77876 | 34775 ft | 460 kts | 6° |
| 2026-05-06 13:37 | 51.57834 | 9.79299 | 34773 ft | 459 kts | 6° |
| 2026-05-06 13:38 | 51.64161 | 9.80720 | 34784 ft | 459 kts | 6° |
| 2026-05-06 13:38 | 51.70495 | 9.82151 | 34788 ft | 459 kts | 6° |
| 2026-05-06 13:39 | 51.76818 | 9.83588 | 34787 ft | 458 kts | 6° |
| 2026-05-06 13:39 | 51.83130 | 9.85027 | 34798 ft | 458 kts | 6° |
| 2026-05-06 13:40 | 51.89438 | 9.86461 | 34811 ft | 458 kts | 6° |
| 2026-05-06 13:40 | 51.95750 | 9.87902 | 34808 ft | 457 kts | 6° |
| 2026-05-06 13:41 | 52.02003 | 9.89343 | 34609 ft | 455 kts | 6° |
| 2026-05-06 13:41 | 52.05175 | 9.90078 | 34035 ft | 455 kts | 6° |
| 2026-05-06 13:41 | 52.08300 | 9.90806 | 33439 ft | 454 kts | 6° |
| 2026-05-06 13:41 | 52.11377 | 9.91525 | 32919 ft | 450 kts | 6° |
| 2026-05-06 13:42 | 52.14457 | 9.92239 | 32362 ft | 447 kts | 6° |
| 2026-05-06 13:42 | 52.17537 | 9.92948 | 31836 ft | 443 kts | 6° |
| 2026-05-06 13:42 | 52.20575 | 9.93650 | 31308 ft | 440 kts | 7° |
| 2026-05-06 13:42 | 52.23591 | 9.94347 | 30793 ft | 436 kts | 7° |
| 2026-05-06 13:43 | 52.26583 | 9.95038 | 30290 ft | 432 kts | 7° |
| 2026-05-06 13:43 | 52.29539 | 9.95721 | 29775 ft | 428 kts | 7° |
| 2026-05-06 13:43 | 52.32466 | 9.96403 | 29269 ft | 423 kts | 7° |
| 2026-05-06 13:43 | 52.35361 | 9.97081 | 28807 ft | 417 kts | 8° |
| 2026-05-06 13:44 | 52.38223 | 9.97748 | 28349 ft | 412 kts | 8° |
| 2026-05-06 13:44 | 52.41050 | 9.98403 | 27908 ft | 407 kts | 8° |
| 2026-05-06 13:44 | 52.43842 | 9.99054 | 27451 ft | 403 kts | 8° |
| 2026-05-06 13:44 | 52.46608 | 9.99704 | 26997 ft | 399 kts | 8° |
| 2026-05-06 13:45 | 52.49333 | 10.00347 | 26548 ft | 394 kts | 8° |
| 2026-05-06 13:45 | 52.54715 | 10.01627 | 25629 ft | 386 kts | 10° |
| 2026-05-06 13:45 | 52.57277 | 10.02621 | 25191 ft | 382 kts | 15° |
| 2026-05-06 13:46 | 52.59831 | 10.03760 | 24741 ft | 378 kts | 16° |
| 2026-05-06 13:46 | 52.62392 | 10.04903 | 24287 ft | 376 kts | 15° |
| 2026-05-06 13:46 | 52.64060 | 10.05649 | 23983 ft | 374 kts | 16° |
| 2026-05-06 13:46 | 52.66572 | 10.06771 | 23530 ft | 373 kts | 16° |
| 2026-05-06 13:47 | 52.69898 | 10.08260 | 22875 ft | 372 kts | 15° |
| 2026-05-06 13:47 | 52.72383 | 10.09374 | 22431 ft | 369 kts | 15° |
| 2026-05-06 13:47 | 52.74849 | 10.10483 | 21997 ft | 366 kts | 15° |
| 2026-05-06 13:47 | 52.76477 | 10.11211 | 21695 ft | 365 kts | 14° |
| 2026-05-06 13:48 | 52.78974 | 10.11825 | 21260 ft | 362 kts | 1° |
| 2026-05-06 13:48 | 52.81490 | 10.11911 | 20838 ft | 360 kts | 0° |
| 2026-05-06 13:48 | 52.83987 | 10.11982 | 20405 ft | 359 kts | 0° |
| 2026-05-06 13:48 | 52.86484 | 10.12056 | 19975 ft | 357 kts | 360° |
| 2026-05-06 13:49 | 52.88971 | 10.12133 | 19552 ft | 357 kts | 360° |
| 2026-05-06 13:49 | 52.91444 | 10.12212 | 19128 ft | 356 kts | 0° |
| 2026-05-06 13:49 | 52.93919 | 10.12295 | 18701 ft | 355 kts | 0° |
| 2026-05-06 13:49 | 52.96387 | 10.12378 | 18279 ft | 354 kts | 360° |
| 2026-05-06 13:50 | 52.98837 | 10.12463 | 17826 ft | 353 kts | 0° |
| 2026-05-06 13:50 | 53.01289 | 10.12551 | 17400 ft | 350 kts | 0° |
| 2026-05-06 13:50 | 53.03708 | 10.12637 | 16993 ft | 348 kts | 0° |
| 2026-05-06 13:50 | 53.06142 | 10.12718 | 16578 ft | 347 kts | 0° |
| 2026-05-06 13:51 | 53.08553 | 10.12795 | 16183 ft | 346 kts | 0° |
| 2026-05-06 13:51 | 53.10965 | 10.12869 | 15777 ft | 348 kts | 0° |
| 2026-05-06 13:51 | 53.13401 | 10.12946 | 15367 ft | 350 kts | 0° |
| 2026-05-06 13:51 | 53.15819 | 10.13026 | 14967 ft | 348 kts | 0° |
| 2026-05-06 13:52 | 53.18232 | 10.13106 | 14573 ft | 346 kts | 0° |
| 2026-05-06 13:52 | 53.20638 | 10.13185 | 14164 ft | 344 kts | 0° |
| 2026-05-06 13:52 | 53.23002 | 10.13265 | 13768 ft | 344 kts | 1° |
| 2026-05-06 13:52 | 53.25414 | 10.13348 | 13333 ft | 342 kts | 1° |
| 2026-05-06 13:53 | 53.27783 | 10.13428 | 12933 ft | 339 kts | 1° |
| 2026-05-06 13:53 | 53.30087 | 10.13093 | 12768 ft | 329 kts | 343° |
| 2026-05-06 13:53 | 53.32060 | 10.11424 | 12636 ft | 318 kts | 321° |
| 2026-05-06 13:53 | 53.33683 | 10.08901 | 12321 ft | 314 kts | 315° |
| 2026-05-06 13:54 | 53.35212 | 10.06302 | 11845 ft | 310 kts | 314° |
| 2026-05-06 13:54 | 53.36706 | 10.03726 | 11394 ft | 307 kts | 314° |
| 2026-05-06 13:54 | 53.38158 | 10.01191 | 10943 ft | 304 kts | 314° |
| 2026-05-06 13:54 | 53.39621 | 9.98601 | 10491 ft | 302 kts | 315° |
| 2026-05-06 13:55 | 53.40964 | 9.95959 | 10059 ft | 300 kts | 302° |
| 2026-05-06 13:55 | 53.41648 | 9.92707 | 9617 ft | 300 kts | 276° |
| 2026-05-06 13:55 | 53.41430 | 9.89259 | 9138 ft | 300 kts | 249° |
| 2026-05-06 13:55 | 53.40449 | 9.86188 | 8658 ft | 299 kts | 236° |
| 2026-05-06 13:56 | 53.39296 | 9.83288 | 8193 ft | 299 kts | 234° |
| 2026-05-06 13:56 | 53.38127 | 9.80403 | 7728 ft | 299 kts | 234° |
| 2026-05-06 13:56 | 53.36955 | 9.77525 | 7272 ft | 299 kts | 234° |
| 2026-05-06 13:56 | 53.35779 | 9.74632 | 6824 ft | 299 kts | 234° |
| 2026-05-06 13:57 | 53.34870 | 9.71532 | 6377 ft | 299 kts | 256° |
| 2026-05-06 13:57 | 53.34812 | 9.68097 | 5915 ft | 297 kts | 283° |
| 2026-05-06 13:57 | 53.35625 | 9.65050 | 5441 ft | 280 kts | 311° |
| 2026-05-06 13:57 | 53.36977 | 9.62866 | 4984 ft | 264 kts | 324° |
| 2026-05-06 13:58 | 53.38537 | 9.61492 | 4510 ft | 246 kts | 352° |
| 2026-05-06 13:58 | 53.40168 | 9.61596 | 4058 ft | 230 kts | 19° |
| 2026-05-06 13:58 | 53.41662 | 9.62421 | 3611 ft | 224 kts | 24° |
| 2026-05-06 13:58 | 53.43120 | 9.63308 | 3139 ft | 221 kts | 24° |
| 2026-05-06 13:59 | 53.44522 | 9.64149 | 3003 ft | 205 kts | 24° |
| 2026-05-06 13:59 | 53.45783 | 9.64913 | 3016 ft | 179 kts | 29° |
| 2026-05-06 13:59 | 53.46717 | 9.66043 | 3018 ft | 161 kts | 51° |
| 2026-05-06 13:59 | 53.47417 | 9.67429 | 3010 ft | 157 kts | 52° |
| 2026-05-06 14:00 | 53.48124 | 9.68844 | 3002 ft | 156 kts | 52° |
| 2026-05-06 14:00 | 53.48818 | 9.70234 | 3005 ft | 155 kts | 52° |
| 2026-05-06 14:00 | 53.49486 | 9.71570 | 3004 ft | 155 kts | 52° |
| 2026-05-06 14:00 | 53.50181 | 9.72960 | 3008 ft | 156 kts | 52° |
| 2026-05-06 14:01 | 53.50876 | 9.74352 | 3013 ft | 156 kts | 52° |
| 2026-05-06 14:01 | 53.51558 | 9.75718 | 3009 ft | 154 kts | 52° |
| 2026-05-06 14:01 | 53.52246 | 9.77096 | 2983 ft | 154 kts | 52° |
| 2026-05-06 14:01 | 53.52936 | 9.78480 | 2864 ft | 154 kts | 52° |
| 2026-05-06 14:02 | 53.53623 | 9.79859 | 2683 ft | 153 kts | 51° |
| 2026-05-06 14:02 | 53.54304 | 9.81225 | 2491 ft | 152 kts | 52° |
| 2026-05-06 14:02 | 53.54981 | 9.82584 | 2290 ft | 150 kts | 51° |
| 2026-05-06 14:02 | 53.55636 | 9.83899 | 2101 ft | 141 kts | 51° |
| 2026-05-06 14:03 | 53.56234 | 9.85103 | 1895 ft | 128 kts | 50° |
| 2026-05-06 14:03 | 53.56785 | 9.86211 | 1725 ft | 121 kts | 50° |
| 2026-05-06 14:03 | 53.57316 | 9.87279 | 1547 ft | 119 kts | 50° |
| 2026-05-06 14:03 | 53.57851 | 9.88355 | 1395 ft | 119 kts | 50° |
| 2026-05-06 14:04 | 53.58385 | 9.89432 | 1231 ft | 120 kts | 50° |
| 2026-05-06 14:04 | 53.58924 | 9.90518 | 1050 ft | 122 kts | 50° |
| 2026-05-06 14:04 | 53.59477 | 9.91632 | 870 ft | 124 kts | 51° |
| 2026-05-06 14:04 | 53.60026 | 9.92740 | 705 ft | 124 kts | 50° |
| 2026-05-06 14:05 | 53.60584 | 9.93864 | 532 ft | 126 kts | 49° |
| 2026-05-06 14:05 | 53.61141 | 9.94979 | 308 ft | 123 kts | 50° |
| 2026-05-06 14:05 | 53.61694 | 9.96087 | 114 ft | 123 kts | 51° |
| 2026-05-06 14:05 | 53.62224 | 9.97182 | 40 ft | 110 kts | 50° |
| 2026-05-06 14:06 | 53.62608 | 9.97955 | 41 ft | 62 kts | 50° |
| 2026-05-06 14:06 | 53.62837 | 9.98418 | 44 ft | 45 kts | 50° |
| 2026-05-06 14:06 | 53.63015 | 9.98782 | 45 ft | 29 kts | 51° |
| 2026-05-06 14:06 | 53.63092 | 9.99075 | 46 ft | 26 kts | 85° |
| 2026-05-06 14:07 | 53.63085 | 9.99268 | 47 ft | 13 kts | 94° |
| 2026-05-06 14:07 | 53.63091 | 9.99365 | 47 ft | 0 kts | 73° |
| 2026-05-06 14:08 | 53.63101 | 9.99405 | 44 ft | 10 kts | 63° |
| 2026-05-06 14:08 | 53.63157 | 9.99536 | 46 ft | 16 kts | 52° |
| 2026-05-06 14:09 | 53.63224 | 9.99684 | 48 ft | 15 kts | 64° |
| 2026-05-06 14:09 | 53.63177 | 9.99801 | 48 ft | 10 kts | 153° |
| 2026-05-06 14:09 | 53.63132 | 9.99840 | 46 ft | 5 kts | 153° |
| 2026-05-06 14:09 | 53.63096 | 9.99871 | 48 ft | 9 kts | 153° |
| 2026-05-06 14:10 | 53.63046 | 9.99914 | 48 ft | 5 kts | 153° |
| 2026-05-06 14:10 | 53.63036 | 9.99922 | 48 ft | 0 kts | 153° |
| 2026-05-06 14:11 | 53.63029 | 9.99928 | 48 ft | 5 kts | 153° |
| 2026-05-06 14:11 | 53.62990 | 9.99962 | 47 ft | 0 kts | 153° |
| 2026-05-06 14:13 | 53.62963 | 9.99986 | 47 ft | 11 kts | 153° |
| 2026-05-06 14:13 | 53.62873 | 10.00048 | 47 ft | 8 kts | 142° |
| 2026-05-06 14:14 | 53.62829 | 10.00085 | 48 ft | 7 kts | 155° |
| 2026-05-06 14:14 | 53.62791 | 10.00118 | 48 ft | 6 kts | 152° |
| 2026-05-06 14:14 | 53.62757 | 10.00149 | 48 ft | 5 kts | 153° |
| 2026-05-06 14:14 | 53.62748 | 10.00190 | 48 ft | 3 kts | 76° |
| 2026-05-06 14:15 | 53.62758 | 10.00227 | 47 ft | 4 kts | 59° |
| 2026-05-06 14:15 | 53.62770 | 10.00263 | 46 ft | 1 kts | 62° |
| 2026-05-06 14:15 | 53.62773 | 10.00272 | 47 ft | 1 kts | 63° |
| 2026-05-06 14:15 | 53.62774 | 10.00275 | 47 ft | 0 kts | 63° |